sensor_id;sensor_type;location;lat;lon;timestamp;temperature;humidity
11647;DHT22;5880;52.342;9.662;2023-06-22T00:00:55;23.80;55.10
11647;DHT22;5880;52.342;9.662;2023-06-22T00:03:23;23.80;55.00
11647;DHT22;5880;52.342;9.662;2023-06-22T00:05:50;23.80;55.20
11647;DHT22;5880;52.342;9.662;2023-06-22T00:08:18;23.80;55.10
11647;DHT22;5880;52.342;9.662;2023-06-22T00:10:45;23.70;55.00
11647;DHT22;5880;52.342;9.662;2023-06-22T00:13:12;23.80;55.10
11647;DHT22;5880;52.342;9.662;2023-06-22T00:15:40;23.70;55.10
11647;DHT22;5880;52.342;9.662;2023-06-22T00:18:07;23.80;55.00
11647;DHT22;5880;52.342;9.662;2023-06-22T00:20:34;23.70;54.90
11647;DHT22;5880;52.342;9.662;2023-06-22T00:23:02;23.70;54.80
11647;DHT22;5880;52.342;9.662;2023-06-22T00:25:34;23.60;54.90
11647;DHT22;5880;52.342;9.662;2023-06-22T00:28:02;23.70;55.10
11647;DHT22;5880;52.342;9.662;2023-06-22T00:30:28;23.60;55.10
11647;DHT22;5880;52.342;9.662;2023-06-22T00:32:53;23.60;55.00
11647;DHT22;5880;52.342;9.662;2023-06-22T00:35:19;23.60;55.10
11647;DHT22;5880;52.342;9.662;2023-06-22T00:37:45;23.50;55.10
11647;DHT22;5880;52.342;9.662;2023-06-22T00:40:11;23.50;55.00
11647;DHT22;5880;52.342;9.662;2023-06-22T00:42:40;23.50;55.20
11647;DHT22;5880;52.342;9.662;2023-06-22T00:45:07;23.50;55.50
11647;DHT22;5880;52.342;9.662;2023-06-22T00:47:36;23.40;55.10
11647;DHT22;5880;52.342;9.662;2023-06-22T00:50:06;23.40;55.60
11647;DHT22;5880;52.342;9.662;2023-06-22T00:52:35;23.40;55.50
11647;DHT22;5880;52.342;9.662;2023-06-22T00:55:02;23.30;55.50
11647;DHT22;5880;52.342;9.662;2023-06-22T00:57:28;23.30;55.90
11647;DHT22;5880;52.342;9.662;2023-06-22T00:59:54;23.30;55.90
11647;DHT22;5880;52.342;9.662;2023-06-22T01:02:20;23.20;55.90
11647;DHT22;5880;52.342;9.662;2023-06-22T01:04:46;23.20;56.00
11647;DHT22;5880;52.342;9.662;2023-06-22T01:07:31;23.20;56.10
11647;DHT22;5880;52.342;9.662;2023-06-22T01:12:38;23.20;57.00
11647;DHT22;5880;52.342;9.662;2023-06-22T01:15:16;23.10;56.50
11647;DHT22;5880;52.342;9.662;2023-06-22T01:17:49;23.10;56.60
11647;DHT22;5880;52.342;9.662;2023-06-22T01:20:17;23.20;56.50
11647;DHT22;5880;52.342;9.662;2023-06-22T01:25:47;23.10;57.50
11647;DHT22;5880;52.342;9.662;2023-06-22T01:28:36;23.60;57.60
11647;DHT22;5880;52.342;9.662;2023-06-22T01:31:08;23.00;57.40
11647;DHT22;5880;52.342;9.662;2023-06-22T01:33:39;23.00;56.50
11647;DHT22;5880;52.342;9.662;2023-06-22T01:36:08;23.00;56.90
11647;DHT22;5880;52.342;9.662;2023-06-22T01:38:37;23.00;56.80
11647;DHT22;5880;52.342;9.662;2023-06-22T01:41:04;23.00;57.00
11647;DHT22;5880;52.342;9.662;2023-06-22T01:43:30;22.90;56.90
11647;DHT22;5880;52.342;9.662;2023-06-22T01:45:58;22.90;56.90
11647;DHT22;5880;52.342;9.662;2023-06-22T01:48:25;22.90;57.00
11647;DHT22;5880;52.342;9.662;2023-06-22T01:50:52;22.90;56.90
11647;DHT22;5880;52.342;9.662;2023-06-22T01:53:21;22.90;56.70
11647;DHT22;5880;52.342;9.662;2023-06-22T01:55:47;22.70;56.50
11647;DHT22;5880;52.342;9.662;2023-06-22T01:58:13;22.80;56.20
11647;DHT22;5880;52.342;9.662;2023-06-22T02:00:42;22.70;56.10
11647;DHT22;5880;52.342;9.662;2023-06-22T02:03:16;22.70;56.40
11647;DHT22;5880;52.342;9.662;2023-06-22T02:05:50;22.60;56.40
11647;DHT22;5880;52.342;9.662;2023-06-22T02:08:25;22.60;56.70
11647;DHT22;5880;52.342;9.662;2023-06-22T02:10:55;22.60;56.70
11647;DHT22;5880;52.342;9.662;2023-06-22T02:13:24;22.50;56.70
11647;DHT22;5880;52.342;9.662;2023-06-22T02:15:50;22.50;57.00
11647;DHT22;5880;52.342;9.662;2023-06-22T02:18:16;22.40;56.90
11647;DHT22;5880;52.342;9.662;2023-06-22T02:20:42;22.40;57.00
11647;DHT22;5880;52.342;9.662;2023-06-22T02:23:08;22.30;57.20
11647;DHT22;5880;52.342;9.662;2023-06-22T02:25:34;22.30;57.20
11647;DHT22;5880;52.342;9.662;2023-06-22T02:28:01;22.30;57.20
11647;DHT22;5880;52.342;9.662;2023-06-22T02:30:27;22.30;57.20
11647;DHT22;5880;52.342;9.662;2023-06-22T02:32:52;22.20;57.10
11647;DHT22;5880;52.342;9.662;2023-06-22T02:35:28;22.20;57.30
11647;DHT22;5880;52.342;9.662;2023-06-22T02:37:59;22.20;57.80
11647;DHT22;5880;52.342;9.662;2023-06-22T02:40:26;22.10;57.60
11647;DHT22;5880;52.342;9.662;2023-06-22T02:42:52;22.20;57.50
11647;DHT22;5880;52.342;9.662;2023-06-22T02:45:18;22.10;57.60
11647;DHT22;5880;52.342;9.662;2023-06-22T02:47:44;22.10;57.70
11647;DHT22;5880;52.342;9.662;2023-06-22T02:50:10;22.00;57.70
11647;DHT22;5880;52.342;9.662;2023-06-22T02:52:36;22.00;57.80
11647;DHT22;5880;52.342;9.662;2023-06-22T02:55:01;22.00;57.90
11647;DHT22;5880;52.342;9.662;2023-06-22T02:57:27;21.90;58.10
11647;DHT22;5880;52.342;9.662;2023-06-22T02:59:53;21.90;58.10
11647;DHT22;5880;52.342;9.662;2023-06-22T03:02:20;21.90;58.20
11647;DHT22;5880;52.342;9.662;2023-06-22T03:04:47;21.90;58.20
11647;DHT22;5880;52.342;9.662;2023-06-22T03:07:14;21.90;58.20
11647;DHT22;5880;52.342;9.662;2023-06-22T03:09:40;21.90;58.20
11647;DHT22;5880;52.342;9.662;2023-06-22T03:12:07;21.90;58.40
11647;DHT22;5880;52.342;9.662;2023-06-22T03:14:33;21.90;58.60
11647;DHT22;5880;52.342;9.662;2023-06-22T03:16:59;21.90;58.70
11647;DHT22;5880;52.342;9.662;2023-06-22T03:19:28;21.90;58.80
11647;DHT22;5880;52.342;9.662;2023-06-22T03:21:59;21.90;58.90
11647;DHT22;5880;52.342;9.662;2023-06-22T03:24:25;21.90;59.00
11647;DHT22;5880;52.342;9.662;2023-06-22T03:26:54;21.80;58.90
11647;DHT22;5880;52.342;9.662;2023-06-22T03:29:20;21.90;59.10
11647;DHT22;5880;52.342;9.662;2023-06-22T03:31:45;21.90;59.10
11647;DHT22;5880;52.342;9.662;2023-06-22T03:34:11;21.90;59.10
11647;DHT22;5880;52.342;9.662;2023-06-22T03:36:37;21.90;59.40
11647;DHT22;5880;52.342;9.662;2023-06-22T03:39:02;21.90;59.60
11647;DHT22;5880;52.342;9.662;2023-06-22T03:41:28;21.90;59.70
11647;DHT22;5880;52.342;9.662;2023-06-22T03:43:54;21.90;59.80
11647;DHT22;5880;52.342;9.662;2023-06-22T03:46:19;22.00;59.90
11647;DHT22;5880;52.342;9.662;2023-06-22T03:48:45;22.00;60.00
11647;DHT22;5880;52.342;9.662;2023-06-22T03:51:11;22.10;60.10
11647;DHT22;5880;52.342;9.662;2023-06-22T03:53:36;22.20;60.10
11647;DHT22;5880;52.342;9.662;2023-06-22T03:56:02;22.20;60.00
11647;DHT22;5880;52.342;9.662;2023-06-22T03:58:28;22.30;60.00
11647;DHT22;5880;52.342;9.662;2023-06-22T04:00:58;22.30;60.10
11647;DHT22;5880;52.342;9.662;2023-06-22T04:03:25;22.40;60.30
11647;DHT22;5880;52.342;9.662;2023-06-22T04:05:50;22.50;60.40
11647;DHT22;5880;52.342;9.662;2023-06-22T04:08:17;22.60;60.40
11647;DHT22;5880;52.342;9.662;2023-06-22T04:10:43;22.60;60.30
11647;DHT22;5880;52.342;9.662;2023-06-22T04:13:09;22.70;60.30
11647;DHT22;5880;52.342;9.662;2023-06-22T04:15:35;22.70;60.10
11647;DHT22;5880;52.342;9.662;2023-06-22T04:18:00;22.80;60.00
11647;DHT22;5880;52.342;9.662;2023-06-22T04:20:26;22.80;59.80
11647;DHT22;5880;52.342;9.662;2023-06-22T04:22:55;22.90;59.80
11647;DHT22;5880;52.342;9.662;2023-06-22T04:25:22;22.90;60.00
11647;DHT22;5880;52.342;9.662;2023-06-22T04:27:48;22.90;59.60
11647;DHT22;5880;52.342;9.662;2023-06-22T04:30:14;23.00;59.50
11647;DHT22;5880;52.342;9.662;2023-06-22T04:32:43;22.90;59.40
11647;DHT22;5880;52.342;9.662;2023-06-22T04:35:10;23.00;59.40
11647;DHT22;5880;52.342;9.662;2023-06-22T04:37:36;23.00;59.50
11647;DHT22;5880;52.342;9.662;2023-06-22T04:40:04;23.00;59.50
11647;DHT22;5880;52.342;9.662;2023-06-22T04:42:34;23.00;59.60
11647;DHT22;5880;52.342;9.662;2023-06-22T04:45:01;23.10;60.10
11647;DHT22;5880;52.342;9.662;2023-06-22T04:47:27;23.00;59.80
11647;DHT22;5880;52.342;9.662;2023-06-22T04:49:52;23.10;60.10
11647;DHT22;5880;52.342;9.662;2023-06-22T04:52:18;23.10;60.00
11647;DHT22;5880;52.342;9.662;2023-06-22T04:54:45;23.10;60.00
11647;DHT22;5880;52.342;9.662;2023-06-22T04:57:20;23.20;59.90
11647;DHT22;5880;52.342;9.662;2023-06-22T04:59:46;23.20;59.80
11647;DHT22;5880;52.342;9.662;2023-06-22T05:02:12;23.20;60.00
11647;DHT22;5880;52.342;9.662;2023-06-22T05:04:37;23.30;60.20
11647;DHT22;5880;52.342;9.662;2023-06-22T05:07:06;23.30;60.30
11647;DHT22;5880;52.342;9.662;2023-06-22T05:09:32;23.40;60.50
11647;DHT22;5880;52.342;9.662;2023-06-22T05:11:59;23.50;60.60
11647;DHT22;5880;52.342;9.662;2023-06-22T05:14:28;23.60;61.00
11647;DHT22;5880;52.342;9.662;2023-06-22T05:16:54;23.70;61.10
11647;DHT22;5880;52.342;9.662;2023-06-22T05:19:24;23.90;61.10
11647;DHT22;5880;52.342;9.662;2023-06-22T05:21:50;24.00;60.50
11647;DHT22;5880;52.342;9.662;2023-06-22T05:24:16;24.20;60.30
11647;DHT22;5880;52.342;9.662;2023-06-22T05:26:41;24.30;60.10
11647;DHT22;5880;52.342;9.662;2023-06-22T05:29:07;24.40;59.70
11647;DHT22;5880;52.342;9.662;2023-06-22T05:31:33;24.50;59.20
11647;DHT22;5880;52.342;9.662;2023-06-22T05:33:58;24.60;58.90
11647;DHT22;5880;52.342;9.662;2023-06-22T05:36:25;24.70;58.50
11647;DHT22;5880;52.342;9.662;2023-06-22T05:38:52;24.80;58.30
11647;DHT22;5880;52.342;9.662;2023-06-22T05:41:18;24.80;58.10
11647;DHT22;5880;52.342;9.662;2023-06-22T05:43:44;24.90;58.10
11647;DHT22;5880;52.342;9.662;2023-06-22T05:46:09;25.00;58.00
11647;DHT22;5880;52.342;9.662;2023-06-22T05:48:35;25.00;58.20
11647;DHT22;5880;52.342;9.662;2023-06-22T05:51:01;25.10;59.50
11647;DHT22;5880;52.342;9.662;2023-06-22T05:53:26;25.30;58.40
11647;DHT22;5880;52.342;9.662;2023-06-22T05:55:52;25.40;58.30
11647;DHT22;5880;52.342;9.662;2023-06-22T05:58:18;25.60;57.80
11647;DHT22;5880;52.342;9.662;2023-06-22T06:00:44;25.70;57.20
11647;DHT22;5880;52.342;9.662;2023-06-22T06:03:12;25.70;56.70
11647;DHT22;5880;52.342;9.662;2023-06-22T06:05:42;25.90;56.50
11647;DHT22;5880;52.342;9.662;2023-06-22T06:08:08;25.90;57.30
11647;DHT22;5880;52.342;9.662;2023-06-22T06:10:36;26.00;58.50
11647;DHT22;5880;52.342;9.662;2023-06-22T06:13:02;26.20;59.20
11647;DHT22;5880;52.342;9.662;2023-06-22T06:15:29;26.50;60.40
11647;DHT22;5880;52.342;9.662;2023-06-22T06:17:58;26.80;61.00
11647;DHT22;5880;52.342;9.662;2023-06-22T06:20:25;27.20;62.00
11647;DHT22;5880;52.342;9.662;2023-06-22T06:22:53;27.70;61.90
11647;DHT22;5880;52.342;9.662;2023-06-22T06:25:19;28.30;61.90
11647;DHT22;5880;52.342;9.662;2023-06-22T06:27:47;28.90;61.20
11647;DHT22;5880;52.342;9.662;2023-06-22T06:30:15;29.40;59.40
11647;DHT22;5880;52.342;9.662;2023-06-22T06:32:43;30.00;57.10
11647;DHT22;5880;52.342;9.662;2023-06-22T06:35:14;30.40;54.60
11647;DHT22;5880;52.342;9.662;2023-06-22T06:37:43;30.70;52.70
11647;DHT22;5880;52.342;9.662;2023-06-22T06:40:12;31.00;52.20
11647;DHT22;5880;52.342;9.662;2023-06-22T06:42:45;31.30;50.00
11647;DHT22;5880;52.342;9.662;2023-06-22T06:45:22;31.50;48.80
11647;DHT22;5880;52.342;9.662;2023-06-22T06:47:50;31.70;47.70
11647;DHT22;5880;52.342;9.662;2023-06-22T06:50:18;31.90;46.20
11647;DHT22;5880;52.342;9.662;2023-06-22T06:52:43;32.00;46.50
11647;DHT22;5880;52.342;9.662;2023-06-22T06:55:10;32.20;46.30
11647;DHT22;5880;52.342;9.662;2023-06-22T06:57:37;32.40;46.50
11647;DHT22;5880;52.342;9.662;2023-06-22T07:00:08;32.60;46.00
11647;DHT22;5880;52.342;9.662;2023-06-22T07:02:38;32.80;43.60
11647;DHT22;5880;52.342;9.662;2023-06-22T07:05:05;32.90;43.00
11647;DHT22;5880;52.342;9.662;2023-06-22T07:07:32;33.00;42.30
11647;DHT22;5880;52.342;9.662;2023-06-22T07:09:57;32.90;40.90
11647;DHT22;5880;52.342;9.662;2023-06-22T07:12:23;32.90;40.10
11647;DHT22;5880;52.342;9.662;2023-06-22T07:14:49;32.80;39.40
11647;DHT22;5880;52.342;9.662;2023-06-22T07:17:15;32.50;39.00
11647;DHT22;5880;52.342;9.662;2023-06-22T07:19:41;32.30;39.20
11647;DHT22;5880;52.342;9.662;2023-06-22T07:22:07;32.00;39.60
11647;DHT22;5880;52.342;9.662;2023-06-22T07:24:33;31.80;39.50
11647;DHT22;5880;52.342;9.662;2023-06-22T07:26:59;31.60;39.90
11647;DHT22;5880;52.342;9.662;2023-06-22T07:29:25;31.50;40.30
11647;DHT22;5880;52.342;9.662;2023-06-22T07:31:52;31.30;39.80
11647;DHT22;5880;52.342;9.662;2023-06-22T07:34:18;31.30;40.30
11647;DHT22;5880;52.342;9.662;2023-06-22T07:36:44;31.20;40.70
11647;DHT22;5880;52.342;9.662;2023-06-22T07:39:12;31.20;40.50
11647;DHT22;5880;52.342;9.662;2023-06-22T07:41:39;31.00;40.40
11647;DHT22;5880;52.342;9.662;2023-06-22T07:44:08;30.90;39.30
11647;DHT22;5880;52.342;9.662;2023-06-22T07:46:34;30.90;39.70
11647;DHT22;5880;52.342;9.662;2023-06-22T07:49:00;30.80;39.80
11647;DHT22;5880;52.342;9.662;2023-06-22T07:51:26;30.70;39.70
11647;DHT22;5880;52.342;9.662;2023-06-22T07:53:52;30.50;39.20
11647;DHT22;5880;52.342;9.662;2023-06-22T07:56:18;30.40;39.60
11647;DHT22;5880;52.342;9.662;2023-06-22T07:58:47;30.30;39.60
11647;DHT22;5880;52.342;9.662;2023-06-22T08:01:14;30.10;39.60
11647;DHT22;5880;52.342;9.662;2023-06-22T08:03:40;29.90;39.30
11647;DHT22;5880;52.342;9.662;2023-06-22T08:06:07;29.70;39.80
11647;DHT22;5880;52.342;9.662;2023-06-22T08:08:34;29.60;40.20
11647;DHT22;5880;52.342;9.662;2023-06-22T08:11:01;29.40;40.50
11647;DHT22;5880;52.342;9.662;2023-06-22T08:13:26;29.30;40.80
11647;DHT22;5880;52.342;9.662;2023-06-22T08:15:52;29.20;41.40
11647;DHT22;5880;52.342;9.662;2023-06-22T08:18:17;29.10;42.10
11647;DHT22;5880;52.342;9.662;2023-06-22T08:20:43;29.00;42.20
11647;DHT22;5880;52.342;9.662;2023-06-22T08:23:09;28.90;41.70
11647;DHT22;5880;52.342;9.662;2023-06-22T08:25:35;28.90;42.10
11647;DHT22;5880;52.342;9.662;2023-06-22T08:28:02;28.80;42.20
11647;DHT22;5880;52.342;9.662;2023-06-22T08:30:28;28.80;42.30
11647;DHT22;5880;52.342;9.662;2023-06-22T08:32:54;28.70;42.60
11647;DHT22;5880;52.342;9.662;2023-06-22T08:35:23;28.60;42.90
11647;DHT22;5880;52.342;9.662;2023-06-22T08:37:49;28.60;43.40
11647;DHT22;5880;52.342;9.662;2023-06-22T08:40:18;28.60;43.30
11647;DHT22;5880;52.342;9.662;2023-06-22T08:42:46;28.60;43.30
11647;DHT22;5880;52.342;9.662;2023-06-22T08:45:12;28.50;43.40
11647;DHT22;5880;52.342;9.662;2023-06-22T08:47:39;28.50;43.50
11647;DHT22;5880;52.342;9.662;2023-06-22T08:50:07;28.50;43.40
11647;DHT22;5880;52.342;9.662;2023-06-22T08:52:34;28.40;43.50
11647;DHT22;5880;52.342;9.662;2023-06-22T08:55:00;28.40;43.60
11647;DHT22;5880;52.342;9.662;2023-06-22T08:57:27;28.40;43.80
11647;DHT22;5880;52.342;9.662;2023-06-22T08:59:53;28.30;44.00
11647;DHT22;5880;52.342;9.662;2023-06-22T09:02:23;28.40;44.80
11647;DHT22;5880;52.342;9.662;2023-06-22T09:04:49;28.30;44.60
11647;DHT22;5880;52.342;9.662;2023-06-22T09:07:21;28.40;44.80
11647;DHT22;5880;52.342;9.662;2023-06-22T09:09:48;28.40;44.70
11647;DHT22;5880;52.342;9.662;2023-06-22T09:12:14;28.40;44.70
11647;DHT22;5880;52.342;9.662;2023-06-22T09:14:40;28.50;44.90
11647;DHT22;5880;52.342;9.662;2023-06-22T09:17:06;28.50;45.00
11647;DHT22;5880;52.342;9.662;2023-06-22T09:19:31;28.50;45.30
11647;DHT22;5880;52.342;9.662;2023-06-22T09:21:57;28.50;45.10
11647;DHT22;5880;52.342;9.662;2023-06-22T09:24:23;28.60;45.50
11647;DHT22;5880;52.342;9.662;2023-06-22T09:26:48;28.60;45.40
11647;DHT22;5880;52.342;9.662;2023-06-22T09:29:14;28.60;45.00
11647;DHT22;5880;52.342;9.662;2023-06-22T09:31:39;28.70;44.70
11647;DHT22;5880;52.342;9.662;2023-06-22T09:34:09;28.70;44.80
11647;DHT22;5880;52.342;9.662;2023-06-22T09:36:35;28.80;44.60
11647;DHT22;5880;52.342;9.662;2023-06-22T09:39:00;28.70;44.00
11647;DHT22;5880;52.342;9.662;2023-06-22T09:41:31;28.70;44.10
11647;DHT22;5880;52.342;9.662;2023-06-22T09:43:56;28.70;44.40
11647;DHT22;5880;52.342;9.662;2023-06-22T09:46:22;28.70;44.50
11647;DHT22;5880;52.342;9.662;2023-06-22T09:48:50;28.60;44.90
11647;DHT22;5880;52.342;9.662;2023-06-22T09:51:16;28.70;45.00
11647;DHT22;5880;52.342;9.662;2023-06-22T09:53:42;28.60;44.80
11647;DHT22;5880;52.342;9.662;2023-06-22T09:56:09;28.70;44.70
11647;DHT22;5880;52.342;9.662;2023-06-22T09:58:43;28.70;44.50
11647;DHT22;5880;52.342;9.662;2023-06-22T10:01:10;28.80;44.50
11647;DHT22;5880;52.342;9.662;2023-06-22T10:03:36;28.70;44.80
11647;DHT22;5880;52.342;9.662;2023-06-22T10:06:02;28.70;44.70
11647;DHT22;5880;52.342;9.662;2023-06-22T10:08:29;28.80;44.80
11647;DHT22;5880;52.342;9.662;2023-06-22T10:10:54;28.80;45.10
11647;DHT22;5880;52.342;9.662;2023-06-22T10:13:20;28.70;44.80
11647;DHT22;5880;52.342;9.662;2023-06-22T10:15:46;28.80;44.90
11647;DHT22;5880;52.342;9.662;2023-06-22T10:18:16;28.80;45.00
11647;DHT22;5880;52.342;9.662;2023-06-22T10:20:43;28.80;45.00
11647;DHT22;5880;52.342;9.662;2023-06-22T10:23:09;28.80;45.20
11647;DHT22;5880;52.342;9.662;2023-06-22T10:25:34;28.80;45.10
11647;DHT22;5880;52.342;9.662;2023-06-22T10:28:00;28.80;44.90
11647;DHT22;5880;52.342;9.662;2023-06-22T10:30:25;28.80;44.80
11647;DHT22;5880;52.342;9.662;2023-06-22T10:32:51;28.80;44.80
11647;DHT22;5880;52.342;9.662;2023-06-22T10:35:17;28.70;44.80
11647;DHT22;5880;52.342;9.662;2023-06-22T10:37:44;28.70;45.10
11647;DHT22;5880;52.342;9.662;2023-06-22T10:40:15;28.70;45.00
11647;DHT22;5880;52.342;9.662;2023-06-22T10:42:41;28.70;45.00
11647;DHT22;5880;52.342;9.662;2023-06-22T10:45:08;28.70;45.20
11647;DHT22;5880;52.342;9.662;2023-06-22T10:47:34;28.60;45.30
11647;DHT22;5880;52.342;9.662;2023-06-22T10:50:01;28.70;45.50
11647;DHT22;5880;52.342;9.662;2023-06-22T10:52:27;28.60;45.80
11647;DHT22;5880;52.342;9.662;2023-06-22T10:54:53;28.70;45.70
11647;DHT22;5880;52.342;9.662;2023-06-22T10:57:19;28.70;45.80
11647;DHT22;5880;52.342;9.662;2023-06-22T10:59:44;28.70;45.90
11647;DHT22;5880;52.342;9.662;2023-06-22T11:02:10;28.80;45.70
11647;DHT22;5880;52.342;9.662;2023-06-22T11:04:35;28.80;45.90
11647;DHT22;5880;52.342;9.662;2023-06-22T11:07:01;28.80;45.90
11647;DHT22;5880;52.342;9.662;2023-06-22T11:09:27;28.80;45.70
11647;DHT22;5880;52.342;9.662;2023-06-22T11:11:52;28.90;45.80
11647;DHT22;5880;52.342;9.662;2023-06-22T11:14:19;28.90;46.00
11647;DHT22;5880;52.342;9.662;2023-06-22T11:16:45;28.90;46.10
11647;DHT22;5880;52.342;9.662;2023-06-22T11:19:12;29.00;46.40
11647;DHT22;5880;52.342;9.662;2023-06-22T11:21:38;29.00;46.40
11647;DHT22;5880;52.342;9.662;2023-06-22T11:24:04;29.00;46.30
11647;DHT22;5880;52.342;9.662;2023-06-22T11:26:30;29.00;46.30
11647;DHT22;5880;52.342;9.662;2023-06-22T11:28:57;29.10;46.20
11647;DHT22;5880;52.342;9.662;2023-06-22T11:31:24;29.10;46.20
11647;DHT22;5880;52.342;9.662;2023-06-22T11:33:50;29.00;46.30
11647;DHT22;5880;52.342;9.662;2023-06-22T11:36:16;29.10;46.40
11647;DHT22;5880;52.342;9.662;2023-06-22T11:38:42;29.10;46.60
11647;DHT22;5880;52.342;9.662;2023-06-22T11:41:09;29.10;47.40
11647;DHT22;5880;52.342;9.662;2023-06-22T11:43:36;29.20;47.20
11647;DHT22;5880;52.342;9.662;2023-06-22T11:46:05;29.30;46.80
11647;DHT22;5880;52.342;9.662;2023-06-22T11:48:31;29.30;47.10
11647;DHT22;5880;52.342;9.662;2023-06-22T11:50:57;29.40;46.60
11647;DHT22;5880;52.342;9.662;2023-06-22T11:53:25;29.50;46.70
11647;DHT22;5880;52.342;9.662;2023-06-22T11:55:52;29.60;46.30
11647;DHT22;5880;52.342;9.662;2023-06-22T11:58:19;29.60;46.20
11647;DHT22;5880;52.342;9.662;2023-06-22T12:00:45;29.70;46.40
11647;DHT22;5880;52.342;9.662;2023-06-22T12:03:10;29.70;45.80
11647;DHT22;5880;52.342;9.662;2023-06-22T12:05:37;29.80;45.60
11647;DHT22;5880;52.342;9.662;2023-06-22T12:08:04;29.80;45.00
11647;DHT22;5880;52.342;9.662;2023-06-22T12:10:30;29.90;44.70
11647;DHT22;5880;52.342;9.662;2023-06-22T12:12:55;29.90;44.20
11647;DHT22;5880;52.342;9.662;2023-06-22T12:15:23;29.90;44.40
11647;DHT22;5880;52.342;9.662;2023-06-22T12:17:49;29.80;44.10
11647;DHT22;5880;52.342;9.662;2023-06-22T12:20:15;29.80;44.10
11647;DHT22;5880;52.342;9.662;2023-06-22T12:22:41;29.80;44.10
11647;DHT22;5880;52.342;9.662;2023-06-22T12:25:07;29.80;44.10
11647;DHT22;5880;52.342;9.662;2023-06-22T12:27:37;29.80;44.30
11647;DHT22;5880;52.342;9.662;2023-06-22T12:30:03;29.80;44.20
11647;DHT22;5880;52.342;9.662;2023-06-22T12:32:30;29.80;44.20
11647;DHT22;5880;52.342;9.662;2023-06-22T12:34:56;29.90;44.30
11647;DHT22;5880;52.342;9.662;2023-06-22T12:37:22;29.90;44.40
11647;DHT22;5880;52.342;9.662;2023-06-22T12:39:48;29.80;44.60
11647;DHT22;5880;52.342;9.662;2023-06-22T12:42:15;29.90;45.10
11647;DHT22;5880;52.342;9.662;2023-06-22T12:44:42;30.00;45.60
11647;DHT22;5880;52.342;9.662;2023-06-22T12:47:08;30.00;45.10
11647;DHT22;5880;52.342;9.662;2023-06-22T12:49:37;30.00;45.10
11647;DHT22;5880;52.342;9.662;2023-06-22T12:52:03;30.10;44.80
11647;DHT22;5880;52.342;9.662;2023-06-22T12:54:29;30.10;44.70
11647;DHT22;5880;52.342;9.662;2023-06-22T12:56:55;30.10;44.50
11647;DHT22;5880;52.342;9.662;2023-06-22T12:59:21;30.10;44.40
11647;DHT22;5880;52.342;9.662;2023-06-22T13:01:47;30.10;44.30
11647;DHT22;5880;52.342;9.662;2023-06-22T13:04:13;30.10;44.50
11647;DHT22;5880;52.342;9.662;2023-06-22T13:06:41;30.10;44.40
11647;DHT22;5880;52.342;9.662;2023-06-22T13:09:07;30.10;44.70
11647;DHT22;5880;52.342;9.662;2023-06-22T13:11:34;30.00;44.80
11647;DHT22;5880;52.342;9.662;2023-06-22T13:13:59;30.00;45.10
11647;DHT22;5880;52.342;9.662;2023-06-22T13:16:25;30.00;45.10
11647;DHT22;5880;52.342;9.662;2023-06-22T13:18:50;30.00;45.50
11647;DHT22;5880;52.342;9.662;2023-06-22T13:21:16;29.90;45.60
11647;DHT22;5880;52.342;9.662;2023-06-22T13:23:42;29.90;46.60
11647;DHT22;5880;52.342;9.662;2023-06-22T13:26:07;29.80;46.30
11647;DHT22;5880;52.342;9.662;2023-06-22T13:28:33;29.70;46.80
11647;DHT22;5880;52.342;9.662;2023-06-22T13:30:59;29.70;47.30
11647;DHT22;5880;52.342;9.662;2023-06-22T13:33:24;29.60;47.70
11647;DHT22;5880;52.342;9.662;2023-06-22T13:35:50;29.60;47.60
11647;DHT22;5880;52.342;9.662;2023-06-22T13:38:16;29.50;47.70
11647;DHT22;5880;52.342;9.662;2023-06-22T13:40:42;29.50;47.90
11647;DHT22;5880;52.342;9.662;2023-06-22T13:43:08;29.40;48.40
11647;DHT22;5880;52.342;9.662;2023-06-22T13:45:34;29.40;48.30
11647;DHT22;5880;52.342;9.662;2023-06-22T13:47:59;29.30;48.60
11647;DHT22;5880;52.342;9.662;2023-06-22T13:50:25;29.30;48.60
11647;DHT22;5880;52.342;9.662;2023-06-22T13:52:51;29.30;48.80
11647;DHT22;5880;52.342;9.662;2023-06-22T13:55:17;29.20;48.80
11647;DHT22;5880;52.342;9.662;2023-06-22T13:57:44;29.20;48.90
11647;DHT22;5880;52.342;9.662;2023-06-22T14:00:11;29.20;48.80
11647;DHT22;5880;52.342;9.662;2023-06-22T14:02:40;29.20;49.00
11647;DHT22;5880;52.342;9.662;2023-06-22T14:05:07;29.20;48.90
11647;DHT22;5880;52.342;9.662;2023-06-22T14:07:33;29.20;49.00
11647;DHT22;5880;52.342;9.662;2023-06-22T14:10:00;29.10;49.50
11647;DHT22;5880;52.342;9.662;2023-06-22T14:12:26;29.10;49.40
11647;DHT22;5880;52.342;9.662;2023-06-22T14:14:51;29.10;49.40
11647;DHT22;5880;52.342;9.662;2023-06-22T14:17:17;29.00;49.30
11647;DHT22;5880;52.342;9.662;2023-06-22T14:19:49;28.90;49.30
11647;DHT22;5880;52.342;9.662;2023-06-22T14:22:17;28.80;49.50
11647;DHT22;5880;52.342;9.662;2023-06-22T14:24:43;28.70;50.10
11647;DHT22;5880;52.342;9.662;2023-06-22T14:27:09;28.60;50.50
11647;DHT22;5880;52.342;9.662;2023-06-22T14:29:35;28.50;51.00
11647;DHT22;5880;52.342;9.662;2023-06-22T14:32:01;28.40;51.50
11647;DHT22;5880;52.342;9.662;2023-06-22T14:34:27;28.40;52.00
11647;DHT22;5880;52.342;9.662;2023-06-22T14:36:52;28.40;52.40
11647;DHT22;5880;52.342;9.662;2023-06-22T14:39:18;28.30;52.90
11647;DHT22;5880;52.342;9.662;2023-06-22T14:41:45;28.30;52.90
11647;DHT22;5880;52.342;9.662;2023-06-22T14:44:11;28.30;53.10
11647;DHT22;5880;52.342;9.662;2023-06-22T14:46:37;28.30;53.30
11647;DHT22;5880;52.342;9.662;2023-06-22T14:49:02;28.30;53.20
11647;DHT22;5880;52.342;9.662;2023-06-22T14:51:28;28.20;53.40
11647;DHT22;5880;52.342;9.662;2023-06-22T14:53:53;28.20;53.40
11647;DHT22;5880;52.342;9.662;2023-06-22T14:56:19;28.20;53.50
11647;DHT22;5880;52.342;9.662;2023-06-22T14:58:45;28.20;53.40
11647;DHT22;5880;52.342;9.662;2023-06-22T15:01:11;28.10;53.60
11647;DHT22;5880;52.342;9.662;2023-06-22T15:03:37;28.10;54.50
11647;DHT22;5880;52.342;9.662;2023-06-22T15:06:03;28.00;54.00
11647;DHT22;5880;52.342;9.662;2023-06-22T15:08:29;28.00;54.40
11647;DHT22;5880;52.342;9.662;2023-06-22T15:10:58;28.00;54.80
11647;DHT22;5880;52.342;9.662;2023-06-22T15:13:26;27.90;55.00
11647;DHT22;5880;52.342;9.662;2023-06-22T15:15:53;27.90;54.40
11647;DHT22;5880;52.342;9.662;2023-06-22T15:18:19;27.80;54.90
11647;DHT22;5880;52.342;9.662;2023-06-22T15:20:44;27.60;55.20
11647;DHT22;5880;52.342;9.662;2023-06-22T15:23:11;27.50;55.70
11647;DHT22;5880;52.342;9.662;2023-06-22T15:25:37;27.30;55.90
11647;DHT22;5880;52.342;9.662;2023-06-22T15:28:03;27.10;56.30
11647;DHT22;5880;52.342;9.662;2023-06-22T15:30:29;26.90;56.10
11647;DHT22;5880;52.342;9.662;2023-06-22T15:32:56;26.70;56.80
11647;DHT22;5880;52.342;9.662;2023-06-22T15:35:23;26.50;57.30
11647;DHT22;5880;52.342;9.662;2023-06-22T15:37:48;26.20;58.70
11647;DHT22;5880;52.342;9.662;2023-06-22T15:40:16;26.00;58.60
11647;DHT22;5880;52.342;9.662;2023-06-22T15:42:42;25.80;58.80
11647;DHT22;5880;52.342;9.662;2023-06-22T15:45:10;25.60;59.10
11647;DHT22;5880;52.342;9.662;2023-06-22T15:47:36;25.50;59.70